ZGSZ METAR and TAF | Updated Today

ZGSZ METAR

Shenzhen Bao'an International Airport

Observation time: 49 min. ago

ZGSZ 010800Z 11005MPS 9999 FEW030 31/24 Q1011 NOSIG

Need help? Read our tutorial on how to read METARs or read the parsed version below.

Shenzhen Bao'an International Airport (ZGSZ) METAR

  • Weather conditions on Sat, 01 Oct 2022 08:00:00 +0000 (49 min. ago):
  • Present conditions: Dry
  • Clouds: A few at 914 meters
  • Visibility: Greater than 10 km
  • Wind: 110 degrees at 5 knots
  • Temperature: 31 celsius
  • Dew point: 24 celsius
  • Pressure: 1011 millibars
  • Remarks: None


Useful to know...

ZGSZ TAF

Shenzhen Bao'an International Airport

TAF ZGSZ 010307Z 0106/0206 10004MPS 8000 SCT030 TX31/0106Z TN26/0122Z TEMPO 0106/0112 TSRA SCT013 FEW025CB BKN030
Observation time: 5:42 hr. ago
Need help? Read our tutorial on how to read TAFs or read the parsed version below.

Parsed version of TAF for Shenzhen Bao'an International Airport (ZGSZ)

  • From 01 October at 06:00 UTC, to day 02 of the month at 06:00 UTC
  • Clouds: Scattered at 914 meters
  • Visibility: 8000 meters
  • Wind: 100 degrees at 4
  • Expected to arise temporarily, from 01 October at 06:00 UTC, to day 01 of the month at 12:00 UTC
  • Clouds: Scattered at 396 meters; a few at 762 meters, cumulonimbus; broken sky at 914 meters